Time;durP1;ratioP1;P1;durP2;ratioP2;P2;SDS_P1;SDS_P2;PMS_P1;PMS_P2;Temp;Humidity;BMP_temperature;BMP_pressure;BME280_temperature;BME280_humidity;BME280_pressure;Samples;Min_cycle;Max_cycle;Signal;HPM_P1;HPM_P2
2023/01/24 00:00:58;;;;;;;1.07;1.07;;;1.70;99.90;;;;;;5100378;28;20429;-68
2023/01/24 00:03:24;;;;;;;1.40;1.00;;;1.70;99.90;;;;;;5083139;28;20429;-68
2023/01/24 00:05:52;;;;;;;4.10;1.37;;;1.70;99.90;;;;;;5093429;28;20427;-68
2023/01/24 00:08:22;;;;;;;1.50;0.90;;;1.70;99.90;;;;;;5077580;28;20426;-68
2023/01/24 00:11:07;;;;;;;1.30;1.05;;;1.70;99.90;;;;;;5083702;28;20893;-69
2023/01/24 00:13:35;;;;;;;0.83;0.83;;;1.70;99.90;;;;;;5077291;28;20427;-68
2023/01/24 00:16:12;;;;;;;1.42;0.88;;;1.70;99.90;;;;;;5084533;28;20505;-69
2023/01/24 00:18:39;;;;;;;2.90;1.03;;;1.70;99.90;;;;;;5079128;28;20490;-68
2023/01/24 00:21:17;;;;;;;1.60;1.10;;;1.60;99.90;;;;;;5086030;28;20425;-68
2023/01/24 00:23:45;;;;;;;1.03;0.90;;;1.70;99.90;;;;;;5084514;28;20583;-68
2023/01/24 00:26:13;;;;;;;1.92;1.38;;;1.70;99.90;;;;;;5074682;28;20439;-68
2023/01/24 00:28:40;;;;;;;1.52;1.30;;;1.70;99.90;;;;;;5080896;28;20427;-68
2023/01/24 00:31:07;;;;;;;2.22;1.00;;;1.70;99.90;;;;;;5082723;28;20435;-69
2023/01/24 00:33:34;;;;;;;1.15;1.10;;;1.70;99.90;;;;;;5090074;28;20951;-69
2023/01/24 00:36:01;;;;;;;0.70;0.67;;;1.60;99.90;;;;;;5096101;28;20428;-68
2023/01/24 00:38:30;;;;;;;1.50;1.15;;;1.60;99.90;;;;;;5080986;28;20819;-68
2023/01/24 00:41:00;;;;;;;1.15;1.13;;;1.60;99.90;;;;;;5083848;28;20425;-69
2023/01/24 00:43:28;;;;;;;1.85;0.77;;;1.60;99.90;;;;;;5087961;28;20517;-69
2023/01/24 00:45:55;;;;;;;0.80;0.80;;;1.60;99.90;;;;;;5091702;28;20513;-68
2023/01/24 00:48:22;;;;;;;1.10;1.00;;;1.60;99.90;;;;;;5071759;28;20428;-68
2023/01/24 00:50:49;;;;;;;0.95;0.68;;;1.60;99.90;;;;;;5082755;28;20770;-69
2023/01/24 00:53:17;;;;;;;1.40;1.30;;;1.60;99.90;;;;;;5081718;28;20517;-68
2023/01/24 00:55:45;;;;;;;2.47;0.82;;;1.60;99.90;;;;;;5097836;28;20440;-69
2023/01/24 00:58:15;;;;;;;2.85;1.20;;;1.60;99.90;;;;;;5088736;28;20422;-68
2023/01/24 01:00:42;;;;;;;2.55;0.98;;;1.60;99.90;;;;;;5098200;28;20441;-68
2023/01/24 01:03:14;;;;;;;1.60;1.00;;;1.60;99.90;;;;;;5075412;28;20425;-69
2023/01/24 01:05:44;;;;;;;0.90;0.90;;;1.50;99.90;;;;;;5084196;28;20533;-69
2023/01/24 01:08:11;;;;;;;1.02;1.00;;;1.50;99.90;;;;;;5080970;28;20534;-68
2023/01/24 01:10:39;;;;;;;1.70;0.93;;;1.60;99.90;;;;;;5091220;28;20430;-68
2023/01/24 01:13:06;;;;;;;1.52;1.17;;;1.60;99.90;;;;;;5081224;28;20453;-68
2023/01/24 01:15:33;;;;;;;1.35;1.25;;;1.60;99.90;;;;;;5085386;28;20474;-68
2023/01/24 01:18:00;;;;;;;1.35;1.25;;;1.60;99.90;;;;;;5074916;28;20748;-69
2023/01/24 01:20:32;;;;;;;1.20;0.93;;;1.60;99.90;;;;;;5082761;28;20429;-69
2023/01/24 01:22:59;;;;;;;3.95;1.23;;;1.60;99.90;;;;;;5077315;28;20431;-69
2023/01/24 01:25:26;;;;;;;2.10;1.05;;;1.50;99.90;;;;;;5060464;28;20446;-69
2023/01/24 01:27:52;;;;;;;2.83;0.63;;;1.60;99.90;;;;;;5086932;28;20456;-68
2023/01/24 01:30:20;;;;;;;2.05;0.98;;;1.60;99.90;;;;;;5084744;28;21125;-69
2023/01/24 01:32:47;;;;;;;1.88;1.40;;;1.60;99.90;;;;;;5087504;28;20424;-68
2023/01/24 01:35:13;;;;;;;1.77;1.00;;;1.60;99.90;;;;;;5081282;28;20437;-68
2023/01/24 01:37:40;;;;;;;1.10;1.00;;;1.70;99.90;;;;;;5097936;28;20431;-69
2023/01/24 01:40:08;;;;;;;2.50;1.40;;;1.60;99.90;;;;;;5095219;28;20506;-68
2023/01/24 01:42:48;;;;;;;0.70;0.70;;;1.60;99.90;;;;;;5092647;28;20962;-69
2023/01/24 01:45:27;;;;;;;0.95;0.95;;;1.60;99.90;;;;;;5086014;28;20423;-68
2023/01/24 01:47:54;;;;;;;0.80;0.77;;;1.60;99.90;;;;;;5079717;28;20430;-68
2023/01/24 01:50:36;;;;;;;1.53;0.90;;;1.60;99.90;;;;;;5074531;28;20468;-68
2023/01/24 01:53:03;;;;;;;0.95;0.90;;;1.60;99.90;;;;;;5077669;28;21178;-68
2023/01/24 01:55:35;;;;;;;2.00;1.90;;;1.60;99.90;;;;;;5082199;28;20433;-69
2023/01/24 01:58:02;;;;;;;1.50;1.40;;;1.50;99.90;;;;;;5084040;28;20422;-69
2023/01/24 02:00:32;;;;;;;1.58;1.48;;;1.50;99.90;;;;;;5073369;28;20439;-69
2023/01/24 02:05:58;;;;;;;1.20;1.10;;;1.40;99.90;;;;;;5068277;28;20432;-69
2023/01/24 02:08:25;;;;;;;2.92;1.25;;;1.40;99.90;;;;;;5077712;28;20440;-68
2023/01/24 02:13:43;;;;;;;1.80;1.38;;;1.40;99.90;;;;;;5074751;28;20506;-68
2023/01/24 02:16:15;;;;;;;2.63;1.10;;;1.40;99.90;;;;;;5075574;28;20958;-68
2023/01/24 02:18:44;;;;;;;6.45;1.20;;;1.40;99.90;;;;;;5085630;28;20437;-69
2023/01/24 02:21:14;;;;;;;1.10;0.90;;;1.40;99.90;;;;;;5078599;28;20431;-69
2023/01/24 02:24:01;;;;;;;3.35;1.20;;;1.30;99.90;;;;;;5080040;28;20455;-69
2023/01/24 02:26:28;;;;;;;1.77;0.85;;;1.30;99.90;;;;;;5078582;28;20478;-69
2023/01/24 02:29:06;;;;;;;0.60;0.60;;;1.30;99.90;;;;;;5071685;28;20431;-69
2023/01/24 02:31:51;;;;;;;0.90;0.70;;;1.40;99.90;;;;;;5081418;28;20427;-69
2023/01/24 02:34:18;;;;;;;1.40;0.85;;;1.30;99.90;;;;;;5080036;28;20967;-68
2023/01/24 02:36:49;;;;;;;1.35;0.88;;;1.20;99.90;;;;;;5084087;28;20730;-68
2023/01/24 02:39:20;;;;;;;1.33;1.15;;;1.20;99.90;;;;;;5083310;28;20436;-69
2023/01/24 02:41:52;;;;;;;2.63;1.20;;;1.20;99.90;;;;;;5089267;28;20931;-69
2023/01/24 02:44:40;;;;;;;1.95;1.08;;;1.20;99.90;;;;;;5081564;28;20429;-68
2023/01/24 02:47:07;;;;;;;0.57;0.57;;;1.20;99.90;;;;;;5089716;28;20920;-69
2023/01/24 02:49:33;;;;;;;1.23;0.88;;;1.20;99.90;;;;;;5082667;28;20850;-69
2023/01/24 02:54:45;;;;;;;1.63;1.37;;;1.10;99.90;;;;;;5078740;28;20933;-68
2023/01/24 02:59:57;;;;;;;1.95;1.27;;;1.10;99.90;;;;;;5078488;28;20454;-69
2023/01/24 03:02:24;;;;;;;4.30;1.77;;;1.10;99.90;;;;;;5080580;28;21265;-68
2023/01/24 03:04:50;;;;;;;2.15;1.95;;;1.10;99.90;;;;;;5087625;28;20434;-69
2023/01/24 03:07:17;;;;;;;1.63;1.02;;;1.10;99.90;;;;;;5084372;28;20422;-68
2023/01/24 03:09:47;;;;;;;2.38;1.20;;;1.10;99.90;;;;;;5086812;28;20510;-69
2023/01/24 03:34:32;;;;;;;1.52;1.42;;;1.30;99.90;;;;;;5083389;28;20486;-69
2023/01/24 03:37:00;;;;;;;1.65;1.38;;;1.30;99.90;;;;;;5077722;28;20438;-69
2023/01/24 03:42:12;;;;;;;1.60;1.25;;;1.30;99.90;;;;;;5086431;28;20422;-68
2023/01/24 03:44:39;;;;;;;0.65;0.65;;;1.30;99.90;;;;;;5092335;28;20428;-69
2023/01/24 03:47:05;;;;;;;1.13;1.10;;;1.30;99.90;;;;;;5085645;28;21149;-68
2023/01/24 03:52:27;;;;;;;1.75;1.20;;;1.20;99.90;;;;;;5086597;28;20425;-69
2023/01/24 03:54:55;;;;;;;2.85;0.80;;;1.30;99.90;;;;;;5080534;28;20476;-68
2023/01/24 03:57:23;;;;;;;2.45;1.35;;;1.30;99.90;;;;;;5086089;28;20975;-68
2023/01/24 03:59:49;;;;;;;0.70;0.63;;;1.30;99.90;;;;;;5087526;28;21031;-69
2023/01/24 04:02:16;;;;;;;0.47;0.47;;;1.30;99.90;;;;;;5083105;28;20442;-69
2023/01/24 04:07:32;;;;;;;0.68;0.68;;;1.40;99.90;;;;;;5087436;28;20439;-68
2023/01/24 04:09:59;;;;;;;1.10;1.10;;;1.40;99.90;;;;;;5092860;28;20503;-69
2023/01/24 04:12:26;;;;;;;1.20;1.05;;;1.40;99.90;;;;;;5087662;28;20426;-69
2023/01/24 04:14:55;;;;;;;0.83;0.83;;;1.30;99.90;;;;;;5092159;28;20424;-68
2023/01/24 04:17:21;;;;;;;1.75;0.77;;;1.30;99.90;;;;;;5085317;28;20470;-69
2023/01/24 04:19:48;;;;;;;3.53;1.00;;;1.40;99.90;;;;;;5083000;28;20444;-68
2023/01/24 04:22:16;;;;;;;0.80;0.80;;;1.40;99.90;;;;;;5078730;28;20429;-69
2023/01/24 04:24:44;;;;;;;0.70;0.70;;;1.40;99.90;;;;;;5081515;28;20419;-69
2023/01/24 04:27:11;;;;;;;0.82;0.82;;;1.40;99.90;;;;;;5092030;28;20428;-69
2023/01/24 04:29:38;;;;;;;3.65;1.30;;;1.40;99.90;;;;;;5081712;28;20517;-69
2023/01/24 04:32:05;;;;;;;0.50;0.50;;;1.40;99.90;;;;;;5077768;28;20432;-69
2023/01/24 04:34:35;;;;;;;0.85;0.85;;;1.40;99.90;;;;;;5096546;28;20424;-69
2023/01/24 04:37:02;;;;;;;1.45;1.17;;;1.40;99.90;;;;;;5074844;28;20431;-69
2023/01/24 04:39:31;;;;;;;2.60;0.80;;;1.50;99.90;;;;;;5084981;28;20429;-69
2023/01/24 04:41:57;;;;;;;0.98;0.98;;;1.50;99.90;;;;;;5069979;28;20493;-69
2023/01/24 04:44:24;;;;;;;4.00;1.90;;;1.50;99.90;;;;;;5080374;28;20422;-69
2023/01/24 04:46:51;;;;;;;0.70;0.70;;;1.50;99.90;;;;;;5088510;28;20426;-71
2023/01/24 04:49:18;;;;;;;1.48;1.35;;;1.50;99.90;;;;;;5087014;28;20424;-67
2023/01/24 04:51:51;;;;;;;0.98;0.88;;;1.50;99.90;;;;;;5084210;28;20495;-67
2023/01/24 04:54:19;;;;;;;2.50;1.40;;;1.50;99.90;;;;;;5078377;28;20426;-67
2023/01/24 04:56:48;;;;;;;1.27;1.20;;;1.50;99.90;;;;;;5081811;28;20454;-67
2023/01/24 04:59:14;;;;;;;0.60;0.60;;;1.50;99.90;;;;;;5075291;28;20465;-67
2023/01/24 05:01:41;;;;;;;0.70;0.70;;;1.50;99.90;;;;;;5091512;28;20527;-67
2023/01/24 05:04:08;;;;;;;3.13;1.08;;;1.50;99.90;;;;;;5078290;28;20498;-67
2023/01/24 05:06:36;;;;;;;0.53;0.53;;;1.50;99.90;;;;;;5076445;28;20494;-67
2023/01/24 05:09:03;;;;;;;3.35;1.38;;;1.50;99.90;;;;;;5084268;28;20429;-68
2023/01/24 05:11:30;;;;;;;1.02;1.02;;;1.60;99.90;;;;;;5084904;28;20485;-68
2023/01/24 05:13:56;;;;;;;1.35;1.25;;;1.60;99.90;;;;;;5087930;28;20433;-68
2023/01/24 05:16:23;;;;;;;3.25;1.55;;;1.50;99.90;;;;;;5074958;28;20916;-68
2023/01/24 05:18:52;;;;;;;0.73;0.73;;;1.50;99.90;;;;;;5079341;28;20985;-68
2023/01/24 05:21:19;;;;;;;5.20;0.60;;;1.50;99.90;;;;;;5080729;28;20438;-68
2023/01/24 05:23:51;;;;;;;1.20;1.00;;;1.60;99.90;;;;;;5071845;28;20459;-68
2023/01/24 05:26:19;;;;;;;0.50;0.47;;;1.60;99.90;;;;;;5072596;28;20429;-68
2023/01/24 05:28:46;;;;;;;0.52;0.52;;;1.60;99.90;;;;;;5074180;28;20439;-68
2023/01/24 05:31:12;;;;;;;0.88;0.88;;;1.60;99.90;;;;;;5084347;28;20513;-68
2023/01/24 05:33:40;;;;;;;0.75;0.75;;;1.60;99.90;;;;;;5082386;28;20428;-67
2023/01/24 05:36:10;;;;;;;0.98;0.98;;;1.60;99.90;;;;;;5083437;28;20457;-68
2023/01/24 05:38:37;;;;;;;0.75;0.75;;;1.60;99.90;;;;;;5091213;28;21165;-67
2023/01/24 05:41:10;;;;;;;1.08;0.98;;;1.60;99.90;;;;;;5083022;28;20427;-68
2023/01/24 05:43:37;;;;;;;0.43;0.43;;;1.60;99.90;;;;;;5070769;28;20427;-68
2023/01/24 05:46:13;;;;;;;1.58;0.60;;;1.60;99.90;;;;;;5081726;28;20430;-68
2023/01/24 05:48:42;;;;;;;1.30;0.90;;;1.60;99.90;;;;;;5082098;28;20551;-68
2023/01/24 05:51:10;;;;;;;1.20;1.02;;;1.60;99.90;;;;;;5082624;28;20435;-68
2023/01/24 05:53:39;;;;;;;2.65;1.33;;;1.60;99.90;;;;;;5082782;28;20434;-68
2023/01/24 05:56:13;;;;;;;1.92;0.93;;;1.60;99.90;;;;;;5083114;28;20953;-68
2023/01/24 05:58:41;;;;;;;2.13;1.10;;;1.60;99.90;;;;;;5078336;28;20434;-68
2023/01/24 06:01:13;;;;;;;1.15;1.00;;;1.70;99.90;;;;;;5075744;28;20773;-67
2023/01/24 06:03:41;;;;;;;1.95;1.58;;;1.60;99.90;;;;;;5070653;28;20472;-67
2023/01/24 06:06:09;;;;;;;1.48;1.17;;;1.60;99.90;;;;;;5079312;28;20459;-68
2023/01/24 06:08:36;;;;;;;3.22;2.38;;;1.60;99.90;;;;;;5101885;28;20431;-68
2023/01/24 06:11:10;;;;;;;1.23;1.13;;;1.60;99.90;;;;;;5082512;28;20440;-68
2023/01/24 06:13:38;;;;;;;5.63;1.25;;;1.60;99.90;;;;;;5084630;28;20457;-68
2023/01/24 06:16:09;;;;;;;2.38;1.08;;;1.60;99.90;;;;;;5069971;28;20471;-68
2023/01/24 06:18:39;;;;;;;2.10;1.33;;;1.60;99.90;;;;;;5072916;28;20510;-68
2023/01/24 06:21:20;;;;;;;1.10;1.00;;;1.60;99.90;;;;;;5078233;28;20515;-68
2023/01/24 06:23:47;;;;;;;0.70;0.70;;;1.60;99.90;;;;;;5074940;28;20510;-67
2023/01/24 06:26:14;;;;;;;0.70;0.65;;;1.60;99.90;;;;;;5072608;28;20427;-67
2023/01/24 06:28:41;;;;;;;1.33;0.73;;;1.60;99.90;;;;;;5064514;28;20430;-68
2023/01/24 06:31:27;;;;;;;1.50;1.40;;;1.60;99.90;;;;;;5077029;28;20561;-67
2023/01/24 06:34:18;;;;;;;1.00;0.65;;;1.70;99.90;;;;;;5069668;28;20845;-68
2023/01/24 06:37:04;;;;;;;2.72;1.23;;;1.60;99.90;;;;;;5072274;28;20464;-68
2023/01/24 06:39:32;;;;;;;1.17;1.00;;;1.60;99.90;;;;;;5069546;28;20438;-68
2023/01/24 06:41:59;;;;;;;1.80;1.02;;;1.60;99.90;;;;;;5069320;28;20434;-68
2023/01/24 06:44:26;;;;;;;1.55;1.00;;;1.60;99.90;;;;;;5068816;28;20479;-68
2023/01/24 06:46:53;;;;;;;2.05;1.00;;;1.60;99.90;;;;;;5072557;28;20425;-68
2023/01/24 06:49:20;;;;;;;1.57;1.47;;;1.60;99.90;;;;;;5070651;28;20920;-68
2023/01/24 06:51:51;;;;;;;1.15;1.15;;;1.70;99.90;;;;;;5066568;28;20427;-68
2023/01/24 06:54:19;;;;;;;0.50;0.50;;;1.70;99.90;;;;;;5063342;28;20439;-67
2023/01/24 06:56:47;;;;;;;2.07;1.00;;;1.70;99.90;;;;;;5070641;28;20440;-68
2023/01/24 06:59:14;;;;;;;2.60;1.60;;;1.80;99.90;;;;;;5076734;28;20437;-68
2023/01/24 07:01:41;;;;;;;2.70;1.25;;;1.80;99.90;;;;;;5069600;28;20435;-68
2023/01/24 07:04:08;;;;;;;2.15;1.38;;;1.80;99.90;;;;;;5075096;28;20436;-68
2023/01/24 07:06:34;;;;;;;3.55;1.52;;;1.80;99.90;;;;;;5068280;28;20433;-67
2023/01/24 07:09:01;;;;;;;2.20;1.30;;;1.80;99.90;;;;;;5067634;28;20437;-68
2023/01/24 07:11:28;;;;;;;1.83;0.85;;;1.70;99.90;;;;;;5067461;28;20495;-68
2023/01/24 07:13:54;;;;;;;0.73;0.73;;;1.70;99.90;;;;;;5069327;28;20481;-67
2023/01/24 07:16:23;;;;;;;0.88;0.85;;;1.80;99.90;;;;;;5068744;28;20436;-67
2023/01/24 07:18:50;;;;;;;5.70;1.00;;;1.80;99.90;;;;;;5067399;28;20426;-67
2023/01/24 07:21:20;;;;;;;0.82;0.82;;;1.80;99.90;;;;;;5066212;28;20495;-67
2023/01/24 07:23:48;;;;;;;1.40;0.80;;;1.90;99.90;;;;;;5074863;28;20509;-68
2023/01/24 07:26:15;;;;;;;0.60;0.60;;;1.90;99.90;;;;;;5074389;28;20831;-67
2023/01/24 07:28:43;;;;;;;1.38;1.15;;;1.90;99.90;;;;;;5071504;28;20505;-68
2023/01/24 07:31:12;;;;;;;0.80;0.80;;;1.80;99.90;;;;;;5075058;28;20491;-67
2023/01/24 07:33:39;;;;;;;1.80;1.10;;;1.80;99.90;;;;;;5072065;28;20447;-67
2023/01/24 07:36:13;;;;;;;1.00;0.82;;;1.80;99.90;;;;;;5084042;28;20429;-68
2023/01/24 07:38:40;;;;;;;0.97;0.97;;;1.90;99.90;;;;;;5066721;28;20443;-68
2023/01/24 07:41:08;;;;;;;0.82;0.82;;;1.90;99.90;;;;;;5077567;28;20429;-68
2023/01/24 07:43:35;;;;;;;1.05;0.90;;;1.90;99.90;;;;;;5073411;28;20426;-68
2023/01/24 07:46:03;;;;;;;0.50;0.50;;;1.90;99.90;;;;;;5074972;28;20430;-68
2023/01/24 07:48:30;;;;;;;0.97;0.80;;;1.90;99.90;;;;;;5076341;28;20424;-68
2023/01/24 07:51:00;;;;;;;1.30;1.30;;;2.00;99.90;;;;;;5070160;28;20442;-68
2023/01/24 07:53:27;;;;;;;4.00;1.10;;;2.00;99.90;;;;;;5069770;28;20438;-68
2023/01/24 07:55:54;;;;;;;1.17;0.45;;;2.00;99.90;;;;;;5076068;28;21228;-69
2023/01/24 07:58:28;;;;;;;1.48;1.20;;;2.00;99.90;;;;;;5074013;28;20514;-69
2023/01/24 08:00:55;;;;;;;1.60;0.95;;;2.10;99.90;;;;;;5076702;28;21008;-68
2023/01/24 08:03:22;;;;;;;1.23;1.02;;;2.10;99.90;;;;;;5078304;28;20436;-69
2023/01/24 08:05:50;;;;;;;1.45;1.10;;;2.10;99.90;;;;;;5076112;28;20494;-68
2023/01/24 08:08:17;;;;;;;1.70;1.25;;;2.10;99.90;;;;;;5071383;28;20430;-69
2023/01/24 08:10:44;;;;;;;1.67;1.50;;;2.20;99.90;;;;;;5076104;28;20445;-71
2023/01/24 08:13:11;;;;;;;1.07;0.87;;;2.20;99.90;;;;;;5078376;28;21208;-69
2023/01/24 08:15:38;;;;;;;0.60;0.60;;;2.20;99.90;;;;;;5076530;28;20963;-69
2023/01/24 08:18:05;;;;;;;1.60;1.08;;;2.20;99.90;;;;;;5074579;28;20462;-69
2023/01/24 08:20:33;;;;;;;1.30;0.50;;;2.20;99.90;;;;;;5075508;28;22337;-68
2023/01/24 08:22:59;;;;;;;1.30;1.08;;;2.30;99.90;;;;;;5073669;28;20429;-68
2023/01/24 08:25:26;;;;;;;1.30;1.20;;;2.30;99.90;;;;;;5079678;28;20475;-69
2023/01/24 08:27:54;;;;;;;7.50;1.30;;;2.20;99.90;;;;;;5081767;28;20837;-69
2023/01/24 08:30:21;;;;;;;0.65;0.65;;;2.30;99.90;;;;;;5077796;28;20994;-69
2023/01/24 08:32:48;;;;;;;1.92;1.50;;;2.30;99.90;;;;;;5078725;28;20513;-69
2023/01/24 08:35:17;;;;;;;1.38;0.65;;;2.30;99.90;;;;;;5079374;28;20428;-69
2023/01/24 08:37:43;;;;;;;0.73;0.73;;;2.30;99.90;;;;;;5084580;28;20839;-69
2023/01/24 08:40:11;;;;;;;1.20;1.00;;;2.40;99.90;;;;;;5076328;28;20421;-69
2023/01/24 08:42:37;;;;;;;1.67;0.95;;;2.40;99.90;;;;;;5081495;28;20424;-69
2023/01/24 08:45:08;;;;;;;1.90;1.58;;;2.40;99.90;;;;;;5074621;28;20426;-69
2023/01/24 08:47:34;;;;;;;1.00;1.00;;;2.40;99.90;;;;;;5076975;28;20432;-69
2023/01/24 08:50:01;;;;;;;1.27;0.90;;;2.40;99.90;;;;;;5083930;28;20947;-70
2023/01/24 08:52:30;;;;;;;2.08;0.85;;;2.40;99.90;;;;;;5075279;28;20457;-69
2023/01/24 08:54:57;;;;;;;1.30;1.15;;;2.40;99.90;;;;;;5076168;28;20437;-69
2023/01/24 08:57:27;;;;;;;1.38;1.27;;;2.40;99.90;;;;;;5075283;28;20429;-69
2023/01/24 08:59:53;;;;;;;1.50;0.70;;;2.40;99.90;;;;;;5080701;28;20502;-69
2023/01/24 09:02:20;;;;;;;1.38;1.08;;;2.50;99.90;;;;;;5084511;28;20539;-69
2023/01/24 09:04:47;;;;;;;4.13;1.05;;;2.50;99.90;;;;;;5077048;28;20466;-69
2023/01/24 09:07:14;;;;;;;1.10;0.75;;;2.60;99.90;;;;;;5074884;28;20772;-69
2023/01/24 09:09:41;;;;;;;0.70;0.70;;;2.60;99.90;;;;;;5076329;28;20434;-69
2023/01/24 09:12:07;;;;;;;1.05;1.05;;;2.60;99.90;;;;;;5057802;28;20438;-69
2023/01/24 09:14:34;;;;;;;1.73;1.17;;;2.60;99.90;;;;;;5077170;28;20439;-70
2023/01/24 09:17:01;;;;;;;1.00;0.90;;;2.70;99.90;;;;;;5074081;28;20431;-69
2023/01/24 09:19:27;;;;;;;1.38;0.93;;;2.70;99.90;;;;;;5083240;28;20424;-69
2023/01/24 09:21:57;;;;;;;1.97;1.10;;;2.70;99.90;;;;;;5081861;28;20426;-70
2023/01/24 09:24:24;;;;;;;3.88;1.40;;;2.70;99.90;;;;;;5075565;28;20461;-69
2023/01/24 09:26:51;;;;;;;1.10;0.85;;;2.70;99.90;;;;;;5074342;28;20425;-69
2023/01/24 09:29:20;;;;;;;1.97;1.40;;;2.70;99.90;;;;;;5075380;28;20510;-69
2023/01/24 09:31:48;;;;;;;1.17;1.10;;;2.70;99.90;;;;;;5071973;28;20455;-69
2023/01/24 09:34:15;;;;;;;1.63;1.05;;;2.70;99.90;;;;;;5076275;28;20429;-69
2023/01/24 09:36:42;;;;;;;1.30;0.80;;;2.70;99.90;;;;;;5073913;28;20435;-70
2023/01/24 09:39:08;;;;;;;0.65;0.65;;;2.70;99.90;;;;;;5073864;28;20433;-69
2023/01/24 09:42:00;;;;;;;1.67;0.80;;;2.70;99.90;;;;;;5076859;28;20429;-70
2023/01/24 09:44:37;;;;;;;1.20;1.10;;;2.70;99.90;;;;;;5075314;28;20425;-70
2023/01/24 09:47:17;;;;;;;2.90;0.50;;;2.70;99.90;;;;;;5071417;28;20439;-69
2023/01/24 09:49:52;;;;;;;0.70;0.65;;;2.80;99.90;;;;;;5075890;28;20435;-69
2023/01/24 09:52:27;;;;;;;1.90;1.10;;;2.80;99.90;;;;;;5084626;28;20430;-70
2023/01/24 09:55:16;;;;;;;0.50;0.50;;;2.80;99.90;;;;;;5085141;28;20511;-67
2023/01/24 09:58:30;;;;;;;3.17;1.38;;;2.80;99.90;;;;;;5085380;28;20955;-70
2023/01/24 10:01:06;;;;;;;0.60;0.60;;;2.80;99.90;;;;;;5077376;28;20491;-70
2023/01/24 10:03:33;;;;;;;1.27;0.77;;;2.80;99.90;;;;;;5079911;28;20425;-68
2023/01/24 10:06:14;;;;;;;2.20;0.83;;;2.70;99.90;;;;;;5082884;28;20428;-67
2023/01/24 10:09:18;;;;;;;0.30;0.30;;;2.80;99.90;;;;;;5090940;28;20432;-68
2023/01/24 10:12:05;;;;;;;0.55;0.55;;;2.80;99.90;;;;;;5087570;28;20460;-68
2023/01/24 10:14:35;;;;;;;0.90;0.80;;;2.80;99.90;;;;;;5083482;28;20912;-68
2023/01/24 10:17:38;;;;;;;1.00;0.75;;;2.80;99.90;;;;;;5078526;28;20436;-68
2023/01/24 10:20:27;;;;;;;1.05;1.05;;;2.80;99.90;;;;;;5072157;28;20465;-70
2023/01/24 10:23:00;;;;;;;0.90;0.90;;;2.70;99.90;;;;;;5066909;28;20425;-68
2023/01/24 10:25:31;;;;;;;0.70;0.70;;;2.60;99.90;;;;;;5088514;28;20457;-69
2023/01/24 10:28:01;;;;;;;0.95;0.75;;;2.60;99.90;;;;;;5089490;28;20435;-68
2023/01/24 10:30:34;;;;;;;0.57;0.57;;;2.60;99.90;;;;;;5076356;28;20490;-68
2023/01/24 10:33:05;;;;;;;3.03;0.98;;;2.60;99.90;;;;;;5068230;28;20429;-68
2023/01/24 10:35:47;;;;;;;1.70;1.17;;;2.60;99.90;;;;;;5069163;28;21216;-68
2023/01/24 10:38:17;;;;;;;1.10;0.80;;;2.60;99.90;;;;;;5077295;28;20435;-68
2023/01/24 10:41:11;;;;;;;0.77;0.73;;;2.60;99.90;;;;;;5072842;28;20429;-69
2023/01/24 10:43:39;;;;;;;1.40;1.13;;;2.70;99.90;;;;;;5081121;28;20424;-68
2023/01/24 10:46:47;;;;;;;0.85;0.43;;;2.70;99.90;;;;;;5089125;28;20418;-68
2023/01/24 10:49:26;;;;;;;0.50;0.40;;;2.80;99.90;;;;;;5070089;28;20423;-69
2023/01/24 10:52:17;;;;;;;0.75;0.65;;;2.70;99.90;;;;;;5080673;28;20531;-70
2023/01/24 10:54:46;;;;;;;0.75;0.73;;;2.80;99.90;;;;;;5081249;28;20482;-71
2023/01/24 10:57:51;;;;;;;1.20;1.10;;;2.80;99.90;;;;;;5088689;28;20441;-71
2023/01/24 11:00:27;;;;;;;0.60;0.60;;;2.90;99.90;;;;;;5093471;28;20516;-71
2023/01/24 11:03:15;;;;;;;3.10;0.75;;;2.90;99.90;;;;;;5092891;28;20428;-69
2023/01/24 11:05:46;;;;;;;0.47;0.47;;;2.90;99.90;;;;;;5082273;28;20419;-68
2023/01/24 11:08:31;;;;;;;1.60;0.98;;;2.80;99.90;;;;;;5087964;28;20908;-70
2023/01/24 11:11:01;;;;;;;1.13;0.70;;;2.80;99.90;;;;;;5071424;28;20462;-70
2023/01/24 11:13:39;;;;;;;1.25;0.80;;;2.90;99.90;;;;;;5086698;28;20423;-70
2023/01/24 11:16:29;;;;;;;0.88;0.70;;;2.90;99.90;;;;;;5084274;28;20424;-72
2023/01/24 11:19:02;;;;;;;2.10;0.95;;;2.90;99.90;;;;;;5082562;28;20529;-70
2023/01/24 11:21:49;;;;;;;0.28;0.28;;;2.80;99.90;;;;;;5074010;28;20431;-70
2023/01/24 11:24:16;;;;;;;1.13;0.70;;;2.80;99.90;;;;;;5086754;28;20417;-70
2023/01/24 11:26:53;;;;;;;1.25;0.77;;;2.80;99.90;;;;;;5081940;28;20427;-70
2023/01/24 11:29:21;;;;;;;1.33;0.80;;;2.90;99.90;;;;;;5084011;28;20427;-70
2023/01/24 11:31:57;;;;;;;1.40;0.85;;;2.90;99.90;;;;;;5088942;28;20429;-70
2023/01/24 11:34:47;;;;;;;0.70;0.70;;;3.00;99.90;;;;;;5087933;28;20486;-70
2023/01/24 11:37:17;;;;;;;0.60;0.60;;;3.00;99.90;;;;;;5077497;28;20442;-71
2023/01/24 11:40:07;;;;;;;0.60;0.60;;;3.00;99.90;;;;;;5085006;28;20453;-70
2023/01/24 11:42:49;;;;;;;0.90;0.90;;;3.00;99.90;;;;;;5071179;28;20801;-70
2023/01/24 11:45:28;;;;;;;0.50;0.50;;;3.00;99.90;;;;;;5084248;28;20432;-70
2023/01/24 11:48:06;;;;;;;2.55;1.00;;;2.90;99.90;;;;;;5087089;28;21381;-71
2023/01/24 11:51:04;;;;;;;1.00;1.00;;;3.00;99.90;;;;;;5081205;28;20914;-70
2023/01/24 11:53:43;;;;;;;0.60;0.60;;;3.00;99.90;;;;;;5082264;28;20516;-71
2023/01/24 11:56:21;;;;;;;0.50;0.50;;;3.10;99.90;;;;;;5089094;28;20436;-70
2023/01/24 11:58:56;;;;;;;0.70;0.70;;;3.10;99.90;;;;;;5078499;28;20483;-71
2023/01/24 12:02:00;;;;;;;0.75;0.75;;;3.10;99.90;;;;;;5078606;28;21182;-70
2023/01/24 12:04:54;;;;;;;0.90;0.90;;;3.00;99.90;;;;;;5080153;28;20423;-70
2023/01/24 12:07:30;;;;;;;1.10;1.10;;;3.00;99.90;;;;;;5074758;28;20443;-71
2023/01/24 12:10:25;;;;;;;0.80;0.75;;;3.10;99.90;;;;;;5078654;28;20437;-71
2023/01/24 12:13:33;;;;;;;0.65;0.65;;;3.10;99.90;;;;;;5082481;28;20425;-71
2023/01/24 12:16:05;;;;;;;0.50;0.50;;;3.10;99.90;;;;;;5077298;28;20944;-70
2023/01/24 12:18:53;;;;;;;0.50;0.50;;;3.10;99.90;;;;;;5072545;28;20443;-71
2023/01/24 12:21:20;;;;;;;0.38;0.38;;;3.10;99.90;;;;;;5071964;28;20437;-70
2023/01/24 12:24:00;;;;;;;1.70;0.60;;;3.20;99.90;;;;;;5089233;28;20904;-71
2023/01/24 12:26:40;;;;;;;0.43;0.43;;;3.30;99.90;;;;;;5089838;28;20976;-71
2023/01/24 12:29:35;;;;;;;0.57;0.57;;;3.30;99.90;;;;;;5090455;28;20520;-71
2023/01/24 12:32:25;;;;;;;0.73;0.73;;;3.40;99.90;;;;;;5086858;28;20492;-71
2023/01/24 12:35:15;;;;;;;0.52;0.38;;;3.50;99.90;;;;;;5090935;28;20922;-71
2023/01/24 12:38:17;;;;;;;0.80;0.80;;;3.60;99.90;;;;;;5078838;28;20430;-71
2023/01/24 12:40:51;;;;;;;0.70;0.70;;;3.70;99.90;;;;;;5083064;28;20920;-71
2023/01/24 12:43:49;;;;;;;0.63;0.63;;;3.70;99.90;;;;;;5087020;28;20503;-71
2023/01/24 12:46:22;;;;;;;1.27;0.68;;;3.70;99.90;;;;;;5081223;28;20447;-70
2023/01/24 12:49:04;;;;;;;0.53;0.53;;;3.60;99.90;;;;;;5077802;28;20430;-71
2023/01/24 12:51:53;;;;;;;0.50;0.50;;;3.60;99.90;;;;;;5071477;28;20456;-71
2023/01/24 12:54:28;;;;;;;0.55;0.55;;;3.70;99.90;;;;;;5076764;28;20427;-71
2023/01/24 12:57:05;;;;;;;1.55;1.30;;;3.70;99.90;;;;;;5080747;28;20423;-71
2023/01/24 12:59:33;;;;;;;1.05;0.98;;;3.80;99.90;;;;;;5087022;28;20430;-71
2023/01/24 13:02:28;;;;;;;0.77;0.77;;;3.80;99.90;;;;;;5075641;28;20426;-71
2023/01/24 13:05:14;;;;;;;0.82;0.82;;;3.70;99.90;;;;;;5078612;28;20774;-71
2023/01/24 13:07:43;;;;;;;0.88;0.85;;;3.70;99.90;;;;;;5085924;28;20423;-71
2023/01/24 13:10:32;;;;;;;1.03;1.03;;;3.70;99.90;;;;;;5078265;28;20426;-71
2023/01/24 13:13:01;;;;;;;2.67;1.10;;;3.60;99.90;;;;;;5084443;28;20473;-72
2023/01/24 13:15:58;;;;;;;1.30;1.00;;;3.60;99.90;;;;;;5084565;28;20425;-71
2023/01/24 13:18:41;;;;;;;1.38;0.98;;;3.50;99.90;;;;;;5085552;28;20437;-71
2023/01/24 13:21:29;;;;;;;0.82;0.82;;;3.50;99.90;;;;;;5085495;28;20435;-71
2023/01/24 13:24:17;;;;;;;2.55;0.57;;;3.40;99.90;;;;;;5086380;28;20427;-71
2023/01/24 13:27:08;;;;;;;0.90;0.90;;;3.40;99.90;;;;;;5076434;28;20428;-71
2023/01/24 13:30:01;;;;;;;0.80;0.80;;;3.40;99.90;;;;;;5097462;28;20436;-71
2023/01/24 13:32:30;;;;;;;1.50;0.43;;;3.40;99.90;;;;;;5069980;28;20431;-71
2023/01/24 13:34:58;;;;;;;1.50;1.00;;;3.40;99.90;;;;;;5076441;28;20979;-71
2023/01/24 13:37:28;;;;;;;0.85;0.82;;;3.50;99.90;;;;;;5084093;28;20442;-71
2023/01/24 13:40:15;;;;;;;0.97;0.97;;;3.50;99.90;;;;;;5082548;28;20995;-71
2023/01/24 13:42:42;;;;;;;0.70;0.40;;;3.50;99.90;;;;;;5086457;28;20441;-71
2023/01/24 13:45:41;;;;;;;1.48;1.08;;;3.50;99.90;;;;;;5079135;28;21243;-71
2023/01/24 13:48:43;;;;;;;1.00;0.80;;;3.30;99.90;;;;;;5077599;28;20503;-72
2023/01/24 13:51:16;;;;;;;2.83;1.25;;;3.30;99.90;;;;;;5069815;28;20506;-70
2023/01/24 13:54:15;;;;;;;2.83;1.25;;;3.20;99.90;;;;;;5066033;28;20435;-70
2023/01/24 13:57:20;;;;;;;0.97;0.97;;;3.20;99.90;;;;;;5072077;28;20519;-69
2023/01/24 14:00:08;;;;;;;1.33;1.13;;;3.20;99.90;;;;;;5067117;28;20430;-70
2023/01/24 14:02:55;;;;;;;4.32;1.52;;;3.20;99.90;;;;;;5064356;28;20433;-70
2023/01/24 14:05:28;;;;;;;1.25;1.15;;;3.20;99.90;;;;;;5071602;28;20433;-69
2023/01/24 14:07:57;;;;;;;1.67;1.00;;;3.20;99.90;;;;;;5070167;28;20453;-70
2023/01/24 14:10:39;;;;;;;2.42;1.23;;;3.10;99.90;;;;;;5068918;28;20442;-69